sensor_id;sensor_type;location;lat;lon;timestamp;P1;durP1;ratioP1;P2;durP2;ratioP2
10596;SDS011;5346;48.766;8.674;2023-08-20T00:01:56;14.45;;;11.05;;
10596;SDS011;5346;48.766;8.674;2023-08-20T00:04:35;12.15;;;10.40;;
10596;SDS011;5346;48.766;8.674;2023-08-20T00:07:12;10.90;;;9.23;;
10596;SDS011;5346;48.766;8.674;2023-08-20T00:09:53;14.57;;;10.40;;
10596;SDS011;5346;48.766;8.674;2023-08-20T00:12:22;13.43;;;10.63;;
10596;SDS011;5346;48.766;8.674;2023-08-20T00:14:58;12.80;;;11.50;;
10596;SDS011;5346;48.766;8.674;2023-08-20T00:17:39;14.75;;;11.13;;
10596;SDS011;5346;48.766;8.674;2023-08-20T00:20:09;14.25;;;12.70;;
10596;SDS011;5346;48.766;8.674;2023-08-20T00:22:46;12.30;;;10.98;;
10596;SDS011;5346;48.766;8.674;2023-08-20T00:25:21;12.15;;;10.85;;
10596;SDS011;5346;48.766;8.674;2023-08-20T00:27:58;12.38;;;10.15;;
10596;SDS011;5346;48.766;8.674;2023-08-20T00:30:26;11.35;;;10.00;;
10596;SDS011;5346;48.766;8.674;2023-08-20T00:33:00;17.00;;;10.20;;
10596;SDS011;5346;48.766;8.674;2023-08-20T00:35:35;14.45;;;11.07;;
10596;SDS011;5346;48.766;8.674;2023-08-20T00:38:10;14.68;;;12.25;;
10596;SDS011;5346;48.766;8.674;2023-08-20T00:40:38;20.38;;;12.07;;
10596;SDS011;5346;48.766;8.674;2023-08-20T00:43:13;16.20;;;11.32;;
10596;SDS011;5346;48.766;8.674;2023-08-20T00:45:41;17.35;;;11.55;;
10596;SDS011;5346;48.766;8.674;2023-08-20T00:48:16;15.32;;;11.57;;
10596;SDS011;5346;48.766;8.674;2023-08-20T00:50:45;12.73;;;11.50;;
10596;SDS011;5346;48.766;8.674;2023-08-20T00:53:19;12.50;;;9.98;;
10596;SDS011;5346;48.766;8.674;2023-08-20T00:55:55;18.38;;;10.25;;
10596;SDS011;5346;48.766;8.674;2023-08-20T00:58:23;12.30;;;9.93;;
10596;SDS011;5346;48.766;8.674;2023-08-20T01:00:57;11.85;;;9.13;;
10596;SDS011;5346;48.766;8.674;2023-08-20T01:03:25;12.43;;;9.35;;
10596;SDS011;5346;48.766;8.674;2023-08-20T01:06:09;12.43;;;9.65;;
10596;SDS011;5346;48.766;8.674;2023-08-20T01:09:01;12.15;;;9.23;;
10596;SDS011;5346;48.766;8.674;2023-08-20T01:11:46;9.85;;;8.80;;
10596;SDS011;5346;48.766;8.674;2023-08-20T01:14:21;10.48;;;7.80;;
10596;SDS011;5346;48.766;8.674;2023-08-20T01:16:56;12.10;;;8.48;;
10596;SDS011;5346;48.766;8.674;2023-08-20T01:19:27;13.40;;;9.02;;
10596;SDS011;5346;48.766;8.674;2023-08-20T01:22:05;11.68;;;9.07;;
10596;SDS011;5346;48.766;8.674;2023-08-20T01:25:04;14.43;;;8.63;;
10596;SDS011;5346;48.766;8.674;2023-08-20T01:27:39;11.00;;;8.85;;
10596;SDS011;5346;48.766;8.674;2023-08-20T01:30:35;10.50;;;7.85;;
10596;SDS011;5346;48.766;8.674;2023-08-20T01:33:05;9.23;;;7.95;;
10596;SDS011;5346;48.766;8.674;2023-08-20T01:35:40;12.40;;;7.68;;
10596;SDS011;5346;48.766;8.674;2023-08-20T01:38:14;15.15;;;8.13;;
10596;SDS011;5346;48.766;8.674;2023-08-20T01:40:48;11.93;;;7.95;;
10596;SDS011;5346;48.766;8.674;2023-08-20T01:43:16;11.25;;;8.15;;
10596;SDS011;5346;48.766;8.674;2023-08-20T01:45:50;10.75;;;8.10;;
10596;SDS011;5346;48.766;8.674;2023-08-20T01:48:18;14.70;;;9.07;;
10596;SDS011;5346;48.766;8.674;2023-08-20T01:50:52;11.93;;;8.60;;
10596;SDS011;5346;48.766;8.674;2023-08-20T01:53:21;11.30;;;8.63;;
10596;SDS011;5346;48.766;8.674;2023-08-20T01:55:55;14.38;;;8.80;;
10596;SDS011;5346;48.766;8.674;2023-08-20T01:58:23;10.77;;;8.70;;
10596;SDS011;5346;48.766;8.674;2023-08-20T02:00:51;10.50;;;9.35;;
10596;SDS011;5346;48.766;8.674;2023-08-20T02:03:27;12.50;;;9.80;;
10596;SDS011;5346;48.766;8.674;2023-08-20T02:05:55;10.90;;;9.18;;
10596;SDS011;5346;48.766;8.674;2023-08-20T02:08:36;11.32;;;8.63;;
10596;SDS011;5346;48.766;8.674;2023-08-20T02:11:04;12.98;;;9.27;;
10596;SDS011;5346;48.766;8.674;2023-08-20T02:13:40;14.88;;;8.70;;
10596;SDS011;5346;48.766;8.674;2023-08-20T02:16:08;13.38;;;8.40;;
10596;SDS011;5346;48.766;8.674;2023-08-20T02:18:37;16.27;;;8.20;;
10596;SDS011;5346;48.766;8.674;2023-08-20T02:21:13;12.95;;;8.43;;
10596;SDS011;5346;48.766;8.674;2023-08-20T02:23:42;13.38;;;7.75;;
10596;SDS011;5346;48.766;8.674;2023-08-20T02:26:16;17.65;;;7.75;;
10596;SDS011;5346;48.766;8.674;2023-08-20T02:28:44;8.52;;;7.28;;
10596;SDS011;5346;48.766;8.674;2023-08-20T02:31:25;10.00;;;7.63;;
10596;SDS011;5346;48.766;8.674;2023-08-20T02:33:56;9.52;;;8.57;;
10596;SDS011;5346;48.766;8.674;2023-08-20T02:36:30;12.20;;;8.35;;
10596;SDS011;5346;48.766;8.674;2023-08-20T02:38:58;10.48;;;9.13;;
10596;SDS011;5346;48.766;8.674;2023-08-20T02:41:35;11.15;;;9.15;;
10596;SDS011;5346;48.766;8.674;2023-08-20T02:44:03;12.00;;;9.40;;
10596;SDS011;5346;48.766;8.674;2023-08-20T02:46:38;13.73;;;9.73;;
10596;SDS011;5346;48.766;8.674;2023-08-20T02:49:07;11.05;;;9.63;;
10596;SDS011;5346;48.766;8.674;2023-08-20T02:51:42;17.45;;;11.82;;
10596;SDS011;5346;48.766;8.674;2023-08-20T02:54:16;11.43;;;10.23;;
10596;SDS011;5346;48.766;8.674;2023-08-20T02:56:59;15.63;;;10.13;;
10596;SDS011;5346;48.766;8.674;2023-08-20T02:59:27;11.38;;;10.27;;
10596;SDS011;5346;48.766;8.674;2023-08-20T03:02:01;13.00;;;11.35;;
10596;SDS011;5346;48.766;8.674;2023-08-20T03:04:30;14.88;;;10.57;;
10596;SDS011;5346;48.766;8.674;2023-08-20T03:07:12;11.88;;;10.25;;
10596;SDS011;5346;48.766;8.674;2023-08-20T03:09:40;12.00;;;10.82;;
10596;SDS011;5346;48.766;8.674;2023-08-20T03:12:14;15.57;;;11.98;;
10596;SDS011;5346;48.766;8.674;2023-08-20T03:14:42;15.80;;;12.50;;
10596;SDS011;5346;48.766;8.674;2023-08-20T03:17:16;14.32;;;12.82;;
10596;SDS011;5346;48.766;8.674;2023-08-20T03:19:57;16.63;;;13.40;;
10596;SDS011;5346;48.766;8.674;2023-08-20T03:22:32;15.48;;;13.88;;
10596;SDS011;5346;48.766;8.674;2023-08-20T03:25:02;19.77;;;14.50;;
10596;SDS011;5346;48.766;8.674;2023-08-20T03:27:31;18.80;;;14.02;;
10596;SDS011;5346;48.766;8.674;2023-08-20T03:30:09;22.13;;;15.23;;
10596;SDS011;5346;48.766;8.674;2023-08-20T03:32:38;21.08;;;14.48;;
10596;SDS011;5346;48.766;8.674;2023-08-20T03:35:06;19.92;;;16.75;;
10596;SDS011;5346;48.766;8.674;2023-08-20T03:37:40;26.50;;;15.48;;
10596;SDS011;5346;48.766;8.674;2023-08-20T03:40:14;20.95;;;15.15;;
10596;SDS011;5346;48.766;8.674;2023-08-20T03:42:51;20.15;;;15.23;;
10596;SDS011;5346;48.766;8.674;2023-08-20T03:45:19;24.70;;;15.68;;
10596;SDS011;5346;48.766;8.674;2023-08-20T03:47:54;22.52;;;16.55;;
10596;SDS011;5346;48.766;8.674;2023-08-20T03:50:22;26.50;;;17.35;;
10596;SDS011;5346;48.766;8.674;2023-08-20T03:52:50;26.27;;;17.50;;
10596;SDS011;5346;48.766;8.674;2023-08-20T03:55:24;20.13;;;15.38;;
10596;SDS011;5346;48.766;8.674;2023-08-20T03:57:59;18.83;;;15.50;;
10596;SDS011;5346;48.766;8.674;2023-08-20T04:00:36;21.55;;;16.42;;
10596;SDS011;5346;48.766;8.674;2023-08-20T04:03:04;21.40;;;15.70;;
10596;SDS011;5346;48.766;8.674;2023-08-20T04:05:39;18.50;;;14.95;;
10596;SDS011;5346;48.766;8.674;2023-08-20T04:08:21;23.63;;;14.95;;
10596;SDS011;5346;48.766;8.674;2023-08-20T04:10:56;20.42;;;14.98;;
10596;SDS011;5346;48.766;8.674;2023-08-20T04:13:26;18.30;;;15.00;;
10596;SDS011;5346;48.766;8.674;2023-08-20T04:16:04;21.95;;;15.27;;
10596;SDS011;5346;48.766;8.674;2023-08-20T04:18:32;17.58;;;14.90;;
10596;SDS011;5346;48.766;8.674;2023-08-20T04:21:07;24.42;;;16.08;;
10596;SDS011;5346;48.766;8.674;2023-08-20T04:23:42;23.83;;;15.10;;
10596;SDS011;5346;48.766;8.674;2023-08-20T04:26:16;22.17;;;16.33;;
10596;SDS011;5346;48.766;8.674;2023-08-20T04:28:46;25.65;;;15.70;;
10596;SDS011;5346;48.766;8.674;2023-08-20T04:31:20;19.98;;;15.35;;
10596;SDS011;5346;48.766;8.674;2023-08-20T04:33:48;22.17;;;15.23;;
10596;SDS011;5346;48.766;8.674;2023-08-20T04:36:22;17.73;;;13.98;;
10596;SDS011;5346;48.766;8.674;2023-08-20T04:38:50;17.50;;;15.07;;
10596;SDS011;5346;48.766;8.674;2023-08-20T04:41:24;17.67;;;13.68;;
10596;SDS011;5346;48.766;8.674;2023-08-20T04:43:59;14.88;;;12.90;;
10596;SDS011;5346;48.766;8.674;2023-08-20T04:46:34;16.63;;;13.90;;
10596;SDS011;5346;48.766;8.674;2023-08-20T04:49:01;15.80;;;13.07;;
10596;SDS011;5346;48.766;8.674;2023-08-20T04:51:36;21.45;;;13.48;;
10596;SDS011;5346;48.766;8.674;2023-08-20T04:54:11;16.00;;;13.18;;
10596;SDS011;5346;48.766;8.674;2023-08-20T04:56:39;18.15;;;13.27;;
10596;SDS011;5346;48.766;8.674;2023-08-20T04:59:14;18.35;;;13.40;;
10596;SDS011;5346;48.766;8.674;2023-08-20T05:01:42;16.08;;;12.57;;
10596;SDS011;5346;48.766;8.674;2023-08-20T05:04:17;17.33;;;12.98;;
10596;SDS011;5346;48.766;8.674;2023-08-20T05:06:45;18.23;;;13.63;;
10596;SDS011;5346;48.766;8.674;2023-08-20T05:09:20;16.73;;;14.82;;
10596;SDS011;5346;48.766;8.674;2023-08-20T05:11:48;17.70;;;13.75;;
10596;SDS011;5346;48.766;8.674;2023-08-20T05:14:16;18.02;;;13.07;;
10596;SDS011;5346;48.766;8.674;2023-08-20T05:16:51;17.52;;;13.07;;
10596;SDS011;5346;48.766;8.674;2023-08-20T05:19:19;16.08;;;13.02;;
10596;SDS011;5346;48.766;8.674;2023-08-20T05:21:54;17.80;;;13.38;;
10596;SDS011;5346;48.766;8.674;2023-08-20T05:24:32;17.98;;;13.93;;
10596;SDS011;5346;48.766;8.674;2023-08-20T05:27:07;15.82;;;13.10;;
10596;SDS011;5346;48.766;8.674;2023-08-20T05:29:42;15.80;;;14.13;;
10596;SDS011;5346;48.766;8.674;2023-08-20T05:32:18;19.02;;;13.68;;
10596;SDS011;5346;48.766;8.674;2023-08-20T05:34:46;16.20;;;12.48;;
10596;SDS011;5346;48.766;8.674;2023-08-20T05:37:21;18.00;;;13.32;;
10596;SDS011;5346;48.766;8.674;2023-08-20T05:39:55;13.88;;;11.35;;
10596;SDS011;5346;48.766;8.674;2023-08-20T05:42:30;13.20;;;10.77;;
10596;SDS011;5346;48.766;8.674;2023-08-20T05:45:04;13.32;;;11.25;;
10596;SDS011;5346;48.766;8.674;2023-08-20T05:47:33;14.10;;;10.75;;
10596;SDS011;5346;48.766;8.674;2023-08-20T05:50:09;11.77;;;10.57;;
10596;SDS011;5346;48.766;8.674;2023-08-20T05:52:37;10.60;;;9.55;;
10596;SDS011;5346;48.766;8.674;2023-08-20T05:55:11;10.20;;;9.13;;
10596;SDS011;5346;48.766;8.674;2023-08-20T05:57:40;10.23;;;9.23;;
10596;SDS011;5346;48.766;8.674;2023-08-20T06:00:22;10.18;;;9.02;;
10596;SDS011;5346;48.766;8.674;2023-08-20T06:02:56;15.95;;;10.13;;
10596;SDS011;5346;48.766;8.674;2023-08-20T06:05:32;11.07;;;9.93;;
10596;SDS011;5346;48.766;8.674;2023-08-20T06:08:15;14.15;;;10.07;;
10596;SDS011;5346;48.766;8.674;2023-08-20T06:10:50;11.00;;;9.70;;
10596;SDS011;5346;48.766;8.674;2023-08-20T06:13:25;15.07;;;9.02;;
10596;SDS011;5346;48.766;8.674;2023-08-20T06:15:59;13.20;;;8.93;;
10596;SDS011;5346;48.766;8.674;2023-08-20T06:18:27;8.73;;;7.90;;
10596;SDS011;5346;48.766;8.674;2023-08-20T06:21:01;10.38;;;8.20;;
10596;SDS011;5346;48.766;8.674;2023-08-20T06:23:36;10.30;;;7.88;;
10596;SDS011;5346;48.766;8.674;2023-08-20T06:26:10;11.18;;;8.00;;
10596;SDS011;5346;48.766;8.674;2023-08-20T06:28:38;9.90;;;8.65;;
10596;SDS011;5346;48.766;8.674;2023-08-20T06:31:12;10.70;;;8.00;;
10596;SDS011;5346;48.766;8.674;2023-08-20T06:33:41;7.60;;;6.90;;
10596;SDS011;5346;48.766;8.674;2023-08-20T06:36:15;8.27;;;6.80;;
10596;SDS011;5346;48.766;8.674;2023-08-20T06:38:44;14.05;;;8.45;;
10596;SDS011;5346;48.766;8.674;2023-08-20T06:41:20;10.65;;;8.40;;
10596;SDS011;5346;48.766;8.674;2023-08-20T06:43:49;10.60;;;7.80;;
10596;SDS011;5346;48.766;8.674;2023-08-20T06:46:24;12.13;;;7.53;;
10596;SDS011;5346;48.766;8.674;2023-08-20T06:48:52;8.40;;;7.60;;
10596;SDS011;5346;48.766;8.674;2023-08-20T06:51:26;12.85;;;7.45;;
10596;SDS011;5346;48.766;8.674;2023-08-20T06:54:02;9.30;;;7.93;;
10596;SDS011;5346;48.766;8.674;2023-08-20T06:56:38;8.43;;;7.28;;
10596;SDS011;5346;48.766;8.674;2023-08-20T06:59:15;8.57;;;7.50;;
10596;SDS011;5346;48.766;8.674;2023-08-20T07:01:44;12.38;;;7.85;;
10596;SDS011;5346;48.766;8.674;2023-08-20T07:04:19;10.73;;;7.18;;
10596;SDS011;5346;48.766;8.674;2023-08-20T07:06:48;9.93;;;7.68;;
10596;SDS011;5346;48.766;8.674;2023-08-20T07:09:38;9.23;;;7.97;;
10596;SDS011;5346;48.766;8.674;2023-08-20T07:12:06;9.18;;;6.82;;
10596;SDS011;5346;48.766;8.674;2023-08-20T07:14:40;9.95;;;8.30;;
10596;SDS011;5346;48.766;8.674;2023-08-20T07:17:15;10.85;;;8.10;;
10596;SDS011;5346;48.766;8.674;2023-08-20T07:19:49;13.40;;;8.25;;
10596;SDS011;5346;48.766;8.674;2023-08-20T07:22:23;8.52;;;7.53;;
10596;SDS011;5346;48.766;8.674;2023-08-20T07:24:58;9.35;;;7.25;;
10596;SDS011;5346;48.766;8.674;2023-08-20T07:27:33;8.60;;;7.30;;
10596;SDS011;5346;48.766;8.674;2023-08-20T07:30:07;8.73;;;7.50;;
10596;SDS011;5346;48.766;8.674;2023-08-20T07:32:41;10.60;;;8.07;;
10596;SDS011;5346;48.766;8.674;2023-08-20T07:35:15;11.00;;;8.20;;
10596;SDS011;5346;48.766;8.674;2023-08-20T07:37:47;8.43;;;7.00;;
10596;SDS011;5346;48.766;8.674;2023-08-20T07:40:23;9.07;;;7.90;;
10596;SDS011;5346;48.766;8.674;2023-08-20T07:42:51;7.97;;;6.95;;
10596;SDS011;5346;48.766;8.674;2023-08-20T07:45:25;17.98;;;6.93;;
10596;SDS011;5346;48.766;8.674;2023-08-20T07:47:56;11.75;;;6.97;;
10596;SDS011;5346;48.766;8.674;2023-08-20T07:50:24;9.95;;;6.43;;
10596;SDS011;5346;48.766;8.674;2023-08-20T07:52:59;7.20;;;6.50;;
10596;SDS011;5346;48.766;8.674;2023-08-20T07:55:27;9.10;;;6.60;;
10596;SDS011;5346;48.766;8.674;2023-08-20T07:58:01;10.77;;;6.88;;
10596;SDS011;5346;48.766;8.674;2023-08-20T08:00:35;10.73;;;6.75;;
10596;SDS011;5346;48.766;8.674;2023-08-20T08:03:09;8.68;;;6.70;;
10596;SDS011;5346;48.766;8.674;2023-08-20T08:05:50;9.23;;;6.88;;
10596;SDS011;5346;48.766;8.674;2023-08-20T08:08:24;7.53;;;6.22;;
10596;SDS011;5346;48.766;8.674;2023-08-20T08:11:05;15.75;;;7.22;;
10596;SDS011;5346;48.766;8.674;2023-08-20T08:13:34;7.50;;;6.43;;
10596;SDS011;5346;48.766;8.674;2023-08-20T08:16:08;10.68;;;7.05;;
10596;SDS011;5346;48.766;8.674;2023-08-20T08:18:36;9.10;;;7.03;;
10596;SDS011;5346;48.766;8.674;2023-08-20T08:21:10;13.95;;;7.40;;
10596;SDS011;5346;48.766;8.674;2023-08-20T08:23:44;11.32;;;6.65;;
10596;SDS011;5346;48.766;8.674;2023-08-20T08:26:18;8.18;;;6.40;;
10596;SDS011;5346;48.766;8.674;2023-08-20T08:28:46;16.30;;;7.05;;
10596;SDS011;5346;48.766;8.674;2023-08-20T08:31:20;9.30;;;5.57;;
10596;SDS011;5346;48.766;8.674;2023-08-20T08:33:54;9.07;;;5.22;;
10596;SDS011;5346;48.766;8.674;2023-08-20T08:36:23;7.35;;;5.35;;
10596;SDS011;5346;48.766;8.674;2023-08-20T08:39:02;6.95;;;6.13;;
10596;SDS011;5346;48.766;8.674;2023-08-20T08:41:30;8.68;;;5.90;;
10596;SDS011;5346;48.766;8.674;2023-08-20T08:44:07;8.95;;;5.97;;
10596;SDS011;5346;48.766;8.674;2023-08-20T08:46:36;8.93;;;6.15;;
10596;SDS011;5346;48.766;8.674;2023-08-20T08:49:13;8.70;;;6.15;;
10596;SDS011;5346;48.766;8.674;2023-08-20T08:51:42;9.80;;;5.72;;
10596;SDS011;5346;48.766;8.674;2023-08-20T08:54:17;10.57;;;5.75;;
10596;SDS011;5346;48.766;8.674;2023-08-20T08:56:46;9.88;;;5.78;;
10596;SDS011;5346;48.766;8.674;2023-08-20T08:59:21;12.27;;;5.78;;
10596;SDS011;5346;48.766;8.674;2023-08-20T09:01:54;8.68;;;5.35;;
10596;SDS011;5346;48.766;8.674;2023-08-20T09:04:31;9.65;;;6.20;;
10596;SDS011;5346;48.766;8.674;2023-08-20T09:07:14;9.10;;;5.70;;
10596;SDS011;5346;48.766;8.674;2023-08-20T09:09:59;6.18;;;5.15;;
10596;SDS011;5346;48.766;8.674;2023-08-20T09:12:35;10.40;;;5.60;;
10596;SDS011;5346;48.766;8.674;2023-08-20T09:15:05;9.95;;;5.43;;
10596;SDS011;5346;48.766;8.674;2023-08-20T09:17:44;11.13;;;6.22;;
10596;SDS011;5346;48.766;8.674;2023-08-20T09:20:13;10.95;;;6.00;;
10596;SDS011;5346;48.766;8.674;2023-08-20T09:22:48;8.50;;;5.53;;
10596;SDS011;5346;48.766;8.674;2023-08-20T09:25:21;10.93;;;6.35;;
10596;SDS011;5346;48.766;8.674;2023-08-20T09:27:57;9.82;;;5.45;;
10596;SDS011;5346;48.766;8.674;2023-08-20T09:30:28;12.18;;;5.50;;
10596;SDS011;5346;48.766;8.674;2023-08-20T09:33:07;6.63;;;5.88;;
10596;SDS011;5346;48.766;8.674;2023-08-20T09:35:48;8.77;;;5.38;;
10596;SDS011;5346;48.766;8.674;2023-08-20T09:38:24;7.55;;;5.13;;
10596;SDS011;5346;48.766;8.674;2023-08-20T09:40:52;9.88;;;5.47;;
10596;SDS011;5346;48.766;8.674;2023-08-20T09:43:31;8.38;;;6.47;;
10596;SDS011;5346;48.766;8.674;2023-08-20T09:46:09;10.40;;;6.07;;
10596;SDS011;5346;48.766;8.674;2023-08-20T09:48:45;9.55;;;5.68;;
10596;SDS011;5346;48.766;8.674;2023-08-20T09:51:24;10.07;;;6.00;;
10596;SDS011;5346;48.766;8.674;2023-08-20T09:54:12;8.23;;;5.93;;
10596;SDS011;5346;48.766;8.674;2023-08-20T09:56:51;10.65;;;5.97;;
10596;SDS011;5346;48.766;8.674;2023-08-20T09:59:24;10.95;;;5.43;;
10596;SDS011;5346;48.766;8.674;2023-08-20T10:02:00;7.00;;;5.60;;
10596;SDS011;5346;48.766;8.674;2023-08-20T10:04:28;7.57;;;5.70;;
10596;SDS011;5346;48.766;8.674;2023-08-20T10:07:04;10.77;;;5.47;;
10596;SDS011;5346;48.766;8.674;2023-08-20T10:09:40;6.35;;;5.50;;
10596;SDS011;5346;48.766;8.674;2023-08-20T10:12:13;8.80;;;5.90;;
10596;SDS011;5346;48.766;8.674;2023-08-20T10:14:48;10.43;;;5.85;;
10596;SDS011;5346;48.766;8.674;2023-08-20T10:17:16;17.55;;;5.93;;
10596;SDS011;5346;48.766;8.674;2023-08-20T10:19:51;7.03;;;6.07;;
10596;SDS011;5346;48.766;8.674;2023-08-20T10:22:20;10.10;;;6.57;;
10596;SDS011;5346;48.766;8.674;2023-08-20T10:24:49;9.90;;;6.30;;
10596;SDS011;5346;48.766;8.674;2023-08-20T10:27:28;9.05;;;6.28;;
10596;SDS011;5346;48.766;8.674;2023-08-20T10:30:01;8.40;;;5.90;;
10596;SDS011;5346;48.766;8.674;2023-08-20T10:32:50;9.60;;;6.10;;
10596;SDS011;5346;48.766;8.674;2023-08-20T10:43:45;6.80;;;5.82;;
10596;SDS011;5346;48.766;8.674;2023-08-20T10:46:20;7.95;;;5.78;;
10596;SDS011;5346;48.766;8.674;2023-08-20T10:48:59;10.13;;;6.03;;
10596;SDS011;5346;48.766;8.674;2023-08-20T10:51:36;10.43;;;5.80;;
10596;SDS011;5346;48.766;8.674;2023-08-20T10:54:15;8.63;;;6.13;;
10596;SDS011;5346;48.766;8.674;2023-08-20T10:56:44;6.93;;;5.75;;
10596;SDS011;5346;48.766;8.674;2023-08-20T10:59:28;11.20;;;6.00;;
10596;SDS011;5346;48.766;8.674;2023-08-20T11:01:59;7.38;;;6.35;;
10596;SDS011;5346;48.766;8.674;2023-08-20T11:04:34;9.25;;;5.57;;
10596;SDS011;5346;48.766;8.674;2023-08-20T11:07:08;10.88;;;6.28;;
10596;SDS011;5346;48.766;8.674;2023-08-20T11:09:50;8.63;;;6.20;;
10596;SDS011;5346;48.766;8.674;2023-08-20T11:12:19;7.85;;;5.90;;
10596;SDS011;5346;48.766;8.674;2023-08-20T11:14:59;9.35;;;6.13;;
10596;SDS011;5346;48.766;8.674;2023-08-20T11:17:39;9.52;;;5.97;;
10596;SDS011;5346;48.766;8.674;2023-08-20T11:20:17;11.50;;;6.03;;
10596;SDS011;5346;48.766;8.674;2023-08-20T11:22:52;8.57;;;6.20;;
10596;SDS011;5346;48.766;8.674;2023-08-20T11:25:26;7.25;;;5.90;;
10596;SDS011;5346;48.766;8.674;2023-08-20T11:27:54;6.93;;;5.88;;
10596;SDS011;5346;48.766;8.674;2023-08-20T11:30:29;7.70;;;5.60;;
10596;SDS011;5346;48.766;8.674;2023-08-20T11:32:57;8.60;;;6.28;;
10596;SDS011;5346;48.766;8.674;2023-08-20T11:35:32;6.88;;;6.00;;
10596;SDS011;5346;48.766;8.674;2023-08-20T11:38:02;9.07;;;5.82;;
10596;SDS011;5346;48.766;8.674;2023-08-20T11:40:37;10.32;;;6.18;;
10596;SDS011;5346;48.766;8.674;2023-08-20T11:43:05;6.70;;;5.72;;
10596;SDS011;5346;48.766;8.674;2023-08-20T11:45:44;9.30;;;5.88;;
10596;SDS011;5346;48.766;8.674;2023-08-20T11:48:13;8.45;;;5.75;;
10596;SDS011;5346;48.766;8.674;2023-08-20T11:50:48;6.78;;;5.40;;
10596;SDS011;5346;48.766;8.674;2023-08-20T11:53:20;9.25;;;6.25;;
10596;SDS011;5346;48.766;8.674;2023-08-20T11:55:59;7.95;;;6.07;;
10596;SDS011;5346;48.766;8.674;2023-08-20T11:58:28;8.45;;;5.60;;
10596;SDS011;5346;48.766;8.674;2023-08-20T12:01:06;8.05;;;5.47;;
10596;SDS011;5346;48.766;8.674;2023-08-20T12:03:39;5.93;;;5.28;;
10596;SDS011;5346;48.766;8.674;2023-08-20T12:06:19;6.60;;;6.00;;
10596;SDS011;5346;48.766;8.674;2023-08-20T12:08:55;7.35;;;5.65;;
10596;SDS011;5346;48.766;8.674;2023-08-20T12:11:39;8.73;;;5.90;;
10596;SDS011;5346;48.766;8.674;2023-08-20T12:14:07;8.27;;;6.15;;
10596;SDS011;5346;48.766;8.674;2023-08-20T12:16:41;10.45;;;6.32;;
10596;SDS011;5346;48.766;8.674;2023-08-20T12:19:16;9.95;;;6.00;;
10596;SDS011;5346;48.766;8.674;2023-08-20T12:21:50;8.25;;;6.38;;
10596;SDS011;5346;48.766;8.674;2023-08-20T12:24:24;9.75;;;6.22;;
10596;SDS011;5346;48.766;8.674;2023-08-20T12:26:52;6.43;;;5.78;;
10596;SDS011;5346;48.766;8.674;2023-08-20T12:29:27;7.07;;;5.60;;
10596;SDS011;5346;48.766;8.674;2023-08-20T12:32:02;12.07;;;5.40;;
10596;SDS011;5346;48.766;8.674;2023-08-20T12:34:38;6.22;;;5.40;;
10596;SDS011;5346;48.766;8.674;2023-08-20T12:37:12;8.30;;;5.50;;
10596;SDS011;5346;48.766;8.674;2023-08-20T12:39:40;7.55;;;5.82;;
10596;SDS011;5346;48.766;8.674;2023-08-20T12:42:14;7.75;;;5.80;;
10596;SDS011;5346;48.766;8.674;2023-08-20T12:44:43;7.93;;;5.65;;
10596;SDS011;5346;48.766;8.674;2023-08-20T12:47:17;11.77;;;5.88;;
10596;SDS011;5346;48.766;8.674;2023-08-20T12:49:45;6.85;;;6.00;;
10596;SDS011;5346;48.766;8.674;2023-08-20T12:52:19;6.82;;;6.03;;
10596;SDS011;5346;48.766;8.674;2023-08-20T12:54:55;12.63;;;5.93;;
10596;SDS011;5346;48.766;8.674;2023-08-20T12:57:28;7.10;;;5.43;;
10596;SDS011;5346;48.766;8.674;2023-08-20T12:59:57;8.75;;;5.82;;
10596;SDS011;5346;48.766;8.674;2023-08-20T13:02:32;7.15;;;6.03;;
10596;SDS011;5346;48.766;8.674;2023-08-20T13:05:00;9.05;;;5.85;;
10596;SDS011;5346;48.766;8.674;2023-08-20T13:07:42;9.13;;;5.68;;
10596;SDS011;5346;48.766;8.674;2023-08-20T13:10:24;7.43;;;5.55;;
10596;SDS011;5346;48.766;8.674;2023-08-20T13:13:00;8.70;;;6.47;;
10596;SDS011;5346;48.766;8.674;2023-08-20T13:15:29;6.18;;;5.40;;
10596;SDS011;5346;48.766;8.674;2023-08-20T13:18:00;12.25;;;5.72;;
10596;SDS011;5346;48.766;8.674;2023-08-20T13:20:35;13.32;;;5.40;;
10596;SDS011;5346;48.766;8.674;2023-08-20T13:23:09;8.82;;;5.38;;
10596;SDS011;5346;48.766;8.674;2023-08-20T13:25:43;8.65;;;5.45;;
10596;SDS011;5346;48.766;8.674;2023-08-20T13:28:17;9.55;;;5.60;;
10596;SDS011;5346;48.766;8.674;2023-08-20T13:30:51;8.55;;;5.60;;
10596;SDS011;5346;48.766;8.674;2023-08-20T13:33:25;6.20;;;5.13;;
10596;SDS011;5346;48.766;8.674;2023-08-20T13:35:53;6.63;;;5.50;;
10596;SDS011;5346;48.766;8.674;2023-08-20T13:38:28;10.18;;;5.45;;
10596;SDS011;5346;48.766;8.674;2023-08-20T13:41:02;8.60;;;5.30;;
10596;SDS011;5346;48.766;8.674;2023-08-20T13:43:43;11.13;;;5.97;;
10596;SDS011;5346;48.766;8.674;2023-08-20T13:46:11;7.72;;;5.80;;
10596;SDS011;5346;48.766;8.674;2023-08-20T13:48:45;7.25;;;5.70;;
10596;SDS011;5346;48.766;8.674;2023-08-20T13:51:14;9.65;;;5.55;;
10596;SDS011;5346;48.766;8.674;2023-08-20T13:53:49;7.95;;;5.45;;
10596;SDS011;5346;48.766;8.674;2023-08-20T13:56:16;9.10;;;5.97;;
10596;SDS011;5346;48.766;8.674;2023-08-20T13:58:45;10.65;;;5.88;;
10596;SDS011;5346;48.766;8.674;2023-08-20T14:01:19;8.38;;;6.05;;
10596;SDS011;5346;48.766;8.674;2023-08-20T14:03:47;8.88;;;6.05;;
10596;SDS011;5346;48.766;8.674;2023-08-20T14:06:23;9.18;;;5.85;;
10596;SDS011;5346;48.766;8.674;2023-08-20T14:09:01;9.82;;;6.40;;
10596;SDS011;5346;48.766;8.674;2023-08-20T14:11:42;9.38;;;5.90;;
10596;SDS011;5346;48.766;8.674;2023-08-20T14:14:16;12.07;;;6.00;;
10596;SDS011;5346;48.766;8.674;2023-08-20T14:16:44;16.23;;;6.55;;
10596;SDS011;5346;48.766;8.674;2023-08-20T14:19:18;14.15;;;6.18;;
10596;SDS011;5346;48.766;8.674;2023-08-20T14:21:46;19.77;;;6.03;;
10596;SDS011;5346;48.766;8.674;2023-08-20T14:24:20;12.10;;;6.20;;
10596;SDS011;5346;48.766;8.674;2023-08-20T14:26:50;8.65;;;5.47;;
10596;SDS011;5346;48.766;8.674;2023-08-20T14:29:18;11.60;;;6.53;;
10596;SDS011;5346;48.766;8.674;2023-08-20T14:31:52;5.90;;;5.30;;
10596;SDS011;5346;48.766;8.674;2023-08-20T14:34:20;8.05;;;5.82;;
10596;SDS011;5346;48.766;8.674;2023-08-20T14:36:55;10.85;;;5.57;;
10596;SDS011;5346;48.766;8.674;2023-08-20T14:39:23;7.97;;;5.82;;
10596;SDS011;5346;48.766;8.674;2023-08-20T14:41:58;9.13;;;5.38;;
10596;SDS011;5346;48.766;8.674;2023-08-20T14:44:26;6.45;;;5.75;;
10596;SDS011;5346;48.766;8.674;2023-08-20T14:47:00;6.20;;;5.60;;
10596;SDS011;5346;48.766;8.674;2023-08-20T14:49:28;7.82;;;5.78;;
10596;SDS011;5346;48.766;8.674;2023-08-20T14:52:02;13.27;;;5.95;;
10596;SDS011;5346;48.766;8.674;2023-08-20T14:54:57;6.40;;;5.72;;
10596;SDS011;5346;48.766;8.674;2023-08-20T14:57:32;9.60;;;5.47;;
10596;SDS011;5346;48.766;8.674;2023-08-20T15:00:18;7.53;;;5.10;;
10596;SDS011;5346;48.766;8.674;2023-08-20T15:02:55;9.55;;;5.78;;
10596;SDS011;5346;48.766;8.674;2023-08-20T15:05:28;7.88;;;5.70;;
10596;SDS011;5346;48.766;8.674;2023-08-20T15:08:04;12.05;;;5.88;;
10596;SDS011;5346;48.766;8.674;2023-08-20T15:10:55;7.60;;;5.68;;
10596;SDS011;5346;48.766;8.674;2023-08-20T15:13:32;7.43;;;5.57;;
10596;SDS011;5346;48.766;8.674;2023-08-20T15:16:00;9.38;;;6.03;;
10596;SDS011;5346;48.766;8.674;2023-08-20T15:18:33;10.68;;;5.35;;
10596;SDS011;5346;48.766;8.674;2023-08-20T15:21:07;7.63;;;5.38;;
10596;SDS011;5346;48.766;8.674;2023-08-20T15:23:43;7.80;;;5.63;;
10596;SDS011;5346;48.766;8.674;2023-08-20T15:26:17;9.15;;;6.30;;
10596;SDS011;5346;48.766;8.674;2023-08-20T15:28:52;7.55;;;6.05;;
10596;SDS011;5346;48.766;8.674;2023-08-20T15:31:19;12.10;;;5.88;;
10596;SDS011;5346;48.766;8.674;2023-08-20T15:33:54;9.05;;;5.43;;
10596;SDS011;5346;48.766;8.674;2023-08-20T15:36:28;10.13;;;5.50;;
10596;SDS011;5346;48.766;8.674;2023-08-20T15:38:56;11.32;;;5.07;;